Zuni Pueblo, New Mexico
Current Conditions -  °F | °C
As of 2:53 AM on Friday 31 Oct 2014 (Local Time) from KGUP Reporting Station
Clear Clear  
Wind Chill: 53°   Ceiling: Unl
Heat Index: 53°   Visibility: 10mi
Dew Point: 17°   Wind: 15mph
Humidity: 24%   Direction: 150°SSE
Pressure: 30.3"   Gusts: NA
Location:  35.0898°N, 108.763°W
Report Text: KGUP 310853Z AUTO 15013KT 10SM CLR 12/M08 A3030 RMK AO2 SLP131 T01171083 57002
Loading
Personal Weather Stations






























Interactive Weather Map
Tropical Storm Tracking
New forecast layout! Learn more

10-Day Weather Forecast

Advertisements
Track Severe Weather on mobile